sensor_id;sensor_type;location;lat;lon;timestamp;temperature;humidity
22469;DHT22;11401;50.792;4.352;2023-02-28T00:01:08;10.60;51.30
22469;DHT22;11401;50.792;4.352;2023-02-28T00:03:35;10.60;51.80
22469;DHT22;11401;50.792;4.352;2023-02-28T00:06:06;10.60;51.10
22469;DHT22;11401;50.792;4.352;2023-02-28T00:08:33;10.60;51.50
22469;DHT22;11401;50.792;4.352;2023-02-28T00:11:02;10.70;51.30
22469;DHT22;11401;50.792;4.352;2023-02-28T00:13:29;10.60;51.90
22469;DHT22;11401;50.792;4.352;2023-02-28T00:16:04;10.60;51.50
22469;DHT22;11401;50.792;4.352;2023-02-28T00:18:32;10.60;51.90
22469;DHT22;11401;50.792;4.352;2023-02-28T00:20:59;10.60;51.80
22469;DHT22;11401;50.792;4.352;2023-02-28T00:23:27;10.60;51.70
22469;DHT22;11401;50.792;4.352;2023-02-28T00:25:54;10.60;51.80
22469;DHT22;11401;50.792;4.352;2023-02-28T00:28:21;10.50;51.00
22469;DHT22;11401;50.792;4.352;2023-02-28T00:30:48;10.50;51.20
22469;DHT22;11401;50.792;4.352;2023-02-28T00:33:16;10.50;52.70
22469;DHT22;11401;50.792;4.352;2023-02-28T00:35:43;10.50;52.30
22469;DHT22;11401;50.792;4.352;2023-02-28T00:38:14;10.50;51.80
22469;DHT22;11401;50.792;4.352;2023-02-28T00:40:41;10.40;50.20
22469;DHT22;11401;50.792;4.352;2023-02-28T00:43:10;10.40;52.70
22469;DHT22;11401;50.792;4.352;2023-02-28T00:45:37;10.60;52.70
22469;DHT22;11401;50.792;4.352;2023-02-28T00:48:04;10.60;52.70
22469;DHT22;11401;50.792;4.352;2023-02-28T00:50:31;10.70;52.10
22469;DHT22;11401;50.792;4.352;2023-02-28T00:52:58;10.60;52.30
22469;DHT22;11401;50.792;4.352;2023-02-28T00:55:26;10.70;52.40
22469;DHT22;11401;50.792;4.352;2023-02-28T00:57:53;10.70;52.00
22469;DHT22;11401;50.792;4.352;2023-02-28T01:00:20;10.70;52.50
22469;DHT22;11401;50.792;4.352;2023-02-28T01:02:49;10.70;52.00
22469;DHT22;11401;50.792;4.352;2023-02-28T01:05:16;10.70;52.40
22469;DHT22;11401;50.792;4.352;2023-02-28T01:07:44;10.60;52.00
22469;DHT22;11401;50.792;4.352;2023-02-28T01:10:11;10.60;52.20
22469;DHT22;11401;50.792;4.352;2023-02-28T01:12:38;10.50;51.10
22469;DHT22;11401;50.792;4.352;2023-02-28T01:15:10;10.30;51.20
22469;DHT22;11401;50.792;4.352;2023-02-28T01:17:37;10.20;52.40
22469;DHT22;11401;50.792;4.352;2023-02-28T01:20:04;10.30;53.10
22469;DHT22;11401;50.792;4.352;2023-02-28T01:22:32;10.40;52.80
22469;DHT22;11401;50.792;4.352;2023-02-28T01:25:00;10.40;52.70
22469;DHT22;11401;50.792;4.352;2023-02-28T01:27:27;10.40;52.90
22469;DHT22;11401;50.792;4.352;2023-02-28T01:29:55;10.40;52.80
22469;DHT22;11401;50.792;4.352;2023-02-28T01:32:22;10.40;52.70
22469;DHT22;11401;50.792;4.352;2023-02-28T01:34:49;10.30;52.80
22469;DHT22;11401;50.792;4.352;2023-02-28T01:37:16;10.30;52.70
22469;DHT22;11401;50.792;4.352;2023-02-28T01:39:43;10.30;53.00
22469;DHT22;11401;50.792;4.352;2023-02-28T01:42:10;10.30;52.80
22469;DHT22;11401;50.792;4.352;2023-02-28T01:47:29;10.30;52.90
22469;DHT22;11401;50.792;4.352;2023-02-28T01:49:58;10.20;52.60
22469;DHT22;11401;50.792;4.352;2023-02-28T01:52:30;10.20;53.10
22469;DHT22;11401;50.792;4.352;2023-02-28T01:55:01;10.30;53.80
22469;DHT22;11401;50.792;4.352;2023-02-28T01:57:33;10.30;53.50
22469;DHT22;11401;50.792;4.352;2023-02-28T02:00:13;10.40;53.30
22469;DHT22;11401;50.792;4.352;2023-02-28T02:02:48;10.20;51.60
22469;DHT22;11401;50.792;4.352;2023-02-28T02:05:20;10.30;53.30
22469;DHT22;11401;50.792;4.352;2023-02-28T02:07:52;10.20;52.70
22469;DHT22;11401;50.792;4.352;2023-02-28T02:10:35;10.30;53.30
22469;DHT22;11401;50.792;4.352;2023-02-28T02:15:40;10.20;53.50
22469;DHT22;11401;50.792;4.352;2023-02-28T02:23:51;9.90;52.20
22469;DHT22;11401;50.792;4.352;2023-02-28T02:37:55;10.20;53.40
22469;DHT22;11401;50.792;4.352;2023-02-28T02:40:25;10.20;53.10
22469;DHT22;11401;50.792;4.352;2023-02-28T02:43:18;10.30;53.10
22469;DHT22;11401;50.792;4.352;2023-02-28T02:45:55;10.30;52.90
22469;DHT22;11401;50.792;4.352;2023-02-28T02:48:26;10.40;52.40
22469;DHT22;11401;50.792;4.352;2023-02-28T02:50:59;10.40;52.40
22469;DHT22;11401;50.792;4.352;2023-02-28T02:53:39;10.40;52.10
22469;DHT22;11401;50.792;4.352;2023-02-28T02:56:08;10.40;52.50
22469;DHT22;11401;50.792;4.352;2023-02-28T02:58:39;10.40;52.40
22469;DHT22;11401;50.792;4.352;2023-02-28T03:01:14;10.40;52.20
22469;DHT22;11401;50.792;4.352;2023-02-28T03:03:43;10.40;52.30
22469;DHT22;11401;50.792;4.352;2023-02-28T03:06:12;10.40;52.00
22469;DHT22;11401;50.792;4.352;2023-02-28T03:08:39;10.40;52.40
22469;DHT22;11401;50.792;4.352;2023-02-28T03:11:11;10.40;52.30
22469;DHT22;11401;50.792;4.352;2023-02-28T03:16:55;10.40;52.60
22469;DHT22;11401;50.792;4.352;2023-02-28T03:22:18;10.40;52.80
22469;DHT22;11401;50.792;4.352;2023-02-28T03:27:53;10.40;52.50
22469;DHT22;11401;50.792;4.352;2023-02-28T03:30:54;10.30;52.00
22469;DHT22;11401;50.792;4.352;2023-02-28T03:33:38;10.40;52.40
22469;DHT22;11401;50.792;4.352;2023-02-28T03:36:15;10.40;52.20
22469;DHT22;11401;50.792;4.352;2023-02-28T03:38:48;10.40;52.60
22469;DHT22;11401;50.792;4.352;2023-02-28T03:41:29;10.40;52.50
22469;DHT22;11401;50.792;4.352;2023-02-28T03:44:07;10.40;52.60
22469;DHT22;11401;50.792;4.352;2023-02-28T03:46:43;10.40;51.90
22469;DHT22;11401;50.792;4.352;2023-02-28T03:49:16;10.40;52.90
22469;DHT22;11401;50.792;4.352;2023-02-28T03:51:45;10.30;52.20
22469;DHT22;11401;50.792;4.352;2023-02-28T03:54:18;10.30;52.30
22469;DHT22;11401;50.792;4.352;2023-02-28T03:57:20;10.30;52.90
22469;DHT22;11401;50.792;4.352;2023-02-28T03:59:56;10.40;53.20
22469;DHT22;11401;50.792;4.352;2023-02-28T04:02:26;10.30;51.40
22469;DHT22;11401;50.792;4.352;2023-02-28T04:04:54;10.30;52.80
22469;DHT22;11401;50.792;4.352;2023-02-28T04:07:21;10.30;52.60
22469;DHT22;11401;50.792;4.352;2023-02-28T04:09:48;10.30;52.80
22469;DHT22;11401;50.792;4.352;2023-02-28T04:12:15;10.20;52.70
22469;DHT22;11401;50.792;4.352;2023-02-28T04:14:42;10.20;52.80
22469;DHT22;11401;50.792;4.352;2023-02-28T04:17:09;10.20;53.30
22469;DHT22;11401;50.792;4.352;2023-02-28T04:19:36;10.20;52.50
22469;DHT22;11401;50.792;4.352;2023-02-28T04:22:04;10.20;52.80
22469;DHT22;11401;50.792;4.352;2023-02-28T04:24:31;10.30;52.90
22469;DHT22;11401;50.792;4.352;2023-02-28T04:26:58;10.30;52.60
22469;DHT22;11401;50.792;4.352;2023-02-28T04:29:27;10.20;52.60
22469;DHT22;11401;50.792;4.352;2023-02-28T04:31:56;10.20;52.40
22469;DHT22;11401;50.792;4.352;2023-02-28T04:34:29;10.20;52.70
22469;DHT22;11401;50.792;4.352;2023-02-28T04:36:56;10.20;52.90
22469;DHT22;11401;50.792;4.352;2023-02-28T04:39:39;10.20;52.90
22469;DHT22;11401;50.792;4.352;2023-02-28T04:42:06;10.30;52.90
22469;DHT22;11401;50.792;4.352;2023-02-28T04:44:33;10.40;52.70
22469;DHT22;11401;50.792;4.352;2023-02-28T04:47:02;10.30;52.30
22469;DHT22;11401;50.792;4.352;2023-02-28T04:49:29;10.30;53.10
22469;DHT22;11401;50.792;4.352;2023-02-28T04:51:56;10.30;52.90
22469;DHT22;11401;50.792;4.352;2023-02-28T04:54:23;10.20;52.00
22469;DHT22;11401;50.792;4.352;2023-02-28T04:56:51;10.10;52.70
22469;DHT22;11401;50.792;4.352;2023-02-28T04:59:18;10.20;53.20
22469;DHT22;11401;50.792;4.352;2023-02-28T05:01:46;10.30;53.10
22469;DHT22;11401;50.792;4.352;2023-02-28T05:04:14;10.20;52.40
22469;DHT22;11401;50.792;4.352;2023-02-28T05:06:42;10.20;53.00
22469;DHT22;11401;50.792;4.352;2023-02-28T05:09:09;10.10;52.60
22469;DHT22;11401;50.792;4.352;2023-02-28T05:11:39;10.20;53.00
22469;DHT22;11401;50.792;4.352;2023-02-28T05:14:13;10.10;52.20
22469;DHT22;11401;50.792;4.352;2023-02-28T05:16:41;10.10;52.60
22469;DHT22;11401;50.792;4.352;2023-02-28T05:19:08;10.20;53.10
22469;DHT22;11401;50.792;4.352;2023-02-28T05:21:39;10.20;52.80
22469;DHT22;11401;50.792;4.352;2023-02-28T05:24:11;10.20;53.00
22469;DHT22;11401;50.792;4.352;2023-02-28T05:26:40;10.20;53.00
22469;DHT22;11401;50.792;4.352;2023-02-28T05:29:08;10.20;53.30
22469;DHT22;11401;50.792;4.352;2023-02-28T05:31:36;10.20;53.10
22469;DHT22;11401;50.792;4.352;2023-02-28T05:34:03;10.20;53.20
22469;DHT22;11401;50.792;4.352;2023-02-28T05:36:33;10.20;53.10
22469;DHT22;11401;50.792;4.352;2023-02-28T05:39:00;10.30;52.60
22469;DHT22;11401;50.792;4.352;2023-02-28T05:41:27;10.20;52.90
22469;DHT22;11401;50.792;4.352;2023-02-28T05:43:55;10.20;53.00
22469;DHT22;11401;50.792;4.352;2023-02-28T05:46:22;10.10;52.40
22469;DHT22;11401;50.792;4.352;2023-02-28T05:48:50;10.10;52.60
22469;DHT22;11401;50.792;4.352;2023-02-28T05:51:17;10.00;52.60
22469;DHT22;11401;50.792;4.352;2023-02-28T05:53:44;10.00;53.40
22469;DHT22;11401;50.792;4.352;2023-02-28T05:56:12;10.10;53.90
22469;DHT22;11401;50.792;4.352;2023-02-28T05:58:39;10.20;52.80
22469;DHT22;11401;50.792;4.352;2023-02-28T06:04:01;9.80;52.70
22469;DHT22;11401;50.792;4.352;2023-02-28T06:06:28;9.80;53.90
22469;DHT22;11401;50.792;4.352;2023-02-28T06:09:06;9.80;53.50
22469;DHT22;11401;50.792;4.352;2023-02-28T06:11:33;9.90;53.50
22469;DHT22;11401;50.792;4.352;2023-02-28T06:14:01;9.90;52.40
22469;DHT22;11401;50.792;4.352;2023-02-28T06:16:30;9.80;52.90
22469;DHT22;11401;50.792;4.352;2023-02-28T06:18:59;9.60;53.00
22469;DHT22;11401;50.792;4.352;2023-02-28T06:21:27;9.50;52.70
22469;DHT22;11401;50.792;4.352;2023-02-28T06:23:56;9.50;54.10
22469;DHT22;11401;50.792;4.352;2023-02-28T06:26:23;9.50;54.20
22469;DHT22;11401;50.792;4.352;2023-02-28T06:28:50;9.50;53.50
22469;DHT22;11401;50.792;4.352;2023-02-28T06:31:18;9.50;53.60
22469;DHT22;11401;50.792;4.352;2023-02-28T06:33:46;9.50;54.10
22469;DHT22;11401;50.792;4.352;2023-02-28T06:36:14;9.50;53.90
22469;DHT22;11401;50.792;4.352;2023-02-28T06:38:41;9.50;53.60
22469;DHT22;11401;50.792;4.352;2023-02-28T06:41:08;9.40;53.50
22469;DHT22;11401;50.792;4.352;2023-02-28T06:43:39;9.40;53.90
22469;DHT22;11401;50.792;4.352;2023-02-28T06:46:08;9.50;53.90
22469;DHT22;11401;50.792;4.352;2023-02-28T06:48:35;9.40;53.50
22469;DHT22;11401;50.792;4.352;2023-02-28T06:51:10;9.40;53.80
22469;DHT22;11401;50.792;4.352;2023-02-28T06:53:37;9.40;54.00
22469;DHT22;11401;50.792;4.352;2023-02-28T06:56:10;9.50;54.00
22469;DHT22;11401;50.792;4.352;2023-02-28T06:58:37;9.50;53.70
22469;DHT22;11401;50.792;4.352;2023-02-28T07:01:07;9.40;52.90
22469;DHT22;11401;50.792;4.352;2023-02-28T07:03:35;9.40;53.20
22469;DHT22;11401;50.792;4.352;2023-02-28T07:06:04;9.30;53.60
22469;DHT22;11401;50.792;4.352;2023-02-28T07:08:31;9.30;53.80
22469;DHT22;11401;50.792;4.352;2023-02-28T07:10:58;9.40;53.80
22469;DHT22;11401;50.792;4.352;2023-02-28T07:13:26;9.30;53.00
22469;DHT22;11401;50.792;4.352;2023-02-28T07:15:58;9.20;53.30
22469;DHT22;11401;50.792;4.352;2023-02-28T07:18:25;9.30;53.60
22469;DHT22;11401;50.792;4.352;2023-02-28T07:20:52;9.30;53.90
22469;DHT22;11401;50.792;4.352;2023-02-28T07:23:20;9.30;53.10
22469;DHT22;11401;50.792;4.352;2023-02-28T07:25:47;9.40;54.30
22469;DHT22;11401;50.792;4.352;2023-02-28T07:28:14;9.50;53.60
22469;DHT22;11401;50.792;4.352;2023-02-28T07:30:42;9.60;52.90
22469;DHT22;11401;50.792;4.352;2023-02-28T07:33:09;9.50;52.60
22469;DHT22;11401;50.792;4.352;2023-02-28T07:35:36;9.40;52.50
22469;DHT22;11401;50.792;4.352;2023-02-28T07:38:03;9.30;53.00
22469;DHT22;11401;50.792;4.352;2023-02-28T07:40:30;9.30;53.20
22469;DHT22;11401;50.792;4.352;2023-02-28T07:42:59;8.60;50.40
22469;DHT22;11401;50.792;4.352;2023-02-28T07:45:27;8.70;55.10
22469;DHT22;11401;50.792;4.352;2023-02-28T07:47:55;8.90;54.20
22469;DHT22;11401;50.792;4.352;2023-02-28T07:50:23;9.00;52.90
22469;DHT22;11401;50.792;4.352;2023-02-28T07:52:52;9.10;52.90
22469;DHT22;11401;50.792;4.352;2023-02-28T07:55:19;9.10;53.20
22469;DHT22;11401;50.792;4.352;2023-02-28T07:57:47;9.00;51.90
22469;DHT22;11401;50.792;4.352;2023-02-28T08:00:14;9.10;52.70
22469;DHT22;11401;50.792;4.352;2023-02-28T08:02:41;9.10;52.60
22469;DHT22;11401;50.792;4.352;2023-02-28T08:05:08;9.10;50.90
22469;DHT22;11401;50.792;4.352;2023-02-28T08:07:35;9.10;51.60
22469;DHT22;11401;50.792;4.352;2023-02-28T08:10:02;9.10;50.90
22469;DHT22;11401;50.792;4.352;2023-02-28T08:12:32;9.20;51.40
22469;DHT22;11401;50.792;4.352;2023-02-28T08:14:59;9.30;51.40
22469;DHT22;11401;50.792;4.352;2023-02-28T08:17:27;9.50;51.70
22469;DHT22;11401;50.792;4.352;2023-02-28T08:19:54;9.20;50.50
22469;DHT22;11401;50.792;4.352;2023-02-28T08:22:21;9.20;49.80
22469;DHT22;11401;50.792;4.352;2023-02-28T08:24:51;9.20;50.80
22469;DHT22;11401;50.792;4.352;2023-02-28T08:27:18;9.00;48.00
22469;DHT22;11401;50.792;4.352;2023-02-28T08:29:45;9.10;50.00
22469;DHT22;11401;50.792;4.352;2023-02-28T08:32:12;9.00;49.40
22469;DHT22;11401;50.792;4.352;2023-02-28T08:34:55;9.10;49.60
22469;DHT22;11401;50.792;4.352;2023-02-28T08:37:22;9.20;49.20
22469;DHT22;11401;50.792;4.352;2023-02-28T08:39:50;9.20;49.60
22469;DHT22;11401;50.792;4.352;2023-02-28T08:42:20;9.10;48.70
22469;DHT22;11401;50.792;4.352;2023-02-28T08:44:48;9.00;48.60
22469;DHT22;11401;50.792;4.352;2023-02-28T08:47:15;8.80;48.40
22469;DHT22;11401;50.792;4.352;2023-02-28T08:49:42;9.00;50.50
22469;DHT22;11401;50.792;4.352;2023-02-28T08:52:09;9.10;49.50
22469;DHT22;11401;50.792;4.352;2023-02-28T08:54:36;9.30;47.90
22469;DHT22;11401;50.792;4.352;2023-02-28T08:57:03;9.30;48.00
22469;DHT22;11401;50.792;4.352;2023-02-28T08:59:30;9.10;50.20
22469;DHT22;11401;50.792;4.352;2023-02-28T09:01:59;9.20;48.80
22469;DHT22;11401;50.792;4.352;2023-02-28T09:04:26;9.10;47.20
22469;DHT22;11401;50.792;4.352;2023-02-28T09:06:53;9.10;49.40
22469;DHT22;11401;50.792;4.352;2023-02-28T09:09:20;9.10;47.70
22469;DHT22;11401;50.792;4.352;2023-02-28T09:11:47;9.00;46.20
22469;DHT22;11401;50.792;4.352;2023-02-28T09:14:14;8.70;47.00
22469;DHT22;11401;50.792;4.352;2023-02-28T09:16:41;8.70;48.50
22469;DHT22;11401;50.792;4.352;2023-02-28T09:19:11;8.80;46.40
22469;DHT22;11401;50.792;4.352;2023-02-28T09:21:39;8.90;46.40
22469;DHT22;11401;50.792;4.352;2023-02-28T09:24:06;9.00;45.20
22469;DHT22;11401;50.792;4.352;2023-02-28T09:26:34;9.00;46.60
22469;DHT22;11401;50.792;4.352;2023-02-28T09:29:09;9.10;45.90
22469;DHT22;11401;50.792;4.352;2023-02-28T09:31:36;9.10;44.50
22469;DHT22;11401;50.792;4.352;2023-02-28T09:34:04;9.10;45.10
22469;DHT22;11401;50.792;4.352;2023-02-28T09:36:31;9.20;45.40
22469;DHT22;11401;50.792;4.352;2023-02-28T09:39:10;9.20;44.10
22469;DHT22;11401;50.792;4.352;2023-02-28T09:41:43;9.30;45.60
22469;DHT22;11401;50.792;4.352;2023-02-28T09:44:47;9.30;44.20
22469;DHT22;11401;50.792;4.352;2023-02-28T09:47:21;9.70;46.30
22469;DHT22;11401;50.792;4.352;2023-02-28T09:49:52;9.70;43.30
22469;DHT22;11401;50.792;4.352;2023-02-28T09:52:29;9.70;42.50
22469;DHT22;11401;50.792;4.352;2023-02-28T09:55:11;9.60;41.20
22469;DHT22;11401;50.792;4.352;2023-02-28T09:57:45;9.40;42.00
22469;DHT22;11401;50.792;4.352;2023-02-28T10:00:18;9.40;43.60
22469;DHT22;11401;50.792;4.352;2023-02-28T10:03:05;9.50;45.90
22469;DHT22;11401;50.792;4.352;2023-02-28T10:05:41;9.50;43.60
22469;DHT22;11401;50.792;4.352;2023-02-28T10:08:31;9.40;42.80
22469;DHT22;11401;50.792;4.352;2023-02-28T10:11:02;9.20;42.80
22469;DHT22;11401;50.792;4.352;2023-02-28T10:13:36;9.20;41.60
22469;DHT22;11401;50.792;4.352;2023-02-28T10:18:52;9.20;41.70
22469;DHT22;11401;50.792;4.352;2023-02-28T10:21:39;9.00;41.70
22469;DHT22;11401;50.792;4.352;2023-02-28T10:24:30;8.90;44.30
22469;DHT22;11401;50.792;4.352;2023-02-28T10:27:20;8.80;42.80
22469;DHT22;11401;50.792;4.352;2023-02-28T10:29:56;8.70;42.60
22469;DHT22;11401;50.792;4.352;2023-02-28T10:32:28;8.80;42.80
22469;DHT22;11401;50.792;4.352;2023-02-28T10:37:40;9.10;43.00
22469;DHT22;11401;50.792;4.352;2023-02-28T10:53:30;9.70;41.20
22469;DHT22;11401;50.792;4.352;2023-02-28T10:59:25;9.30;41.40
22469;DHT22;11401;50.792;4.352;2023-02-28T11:01:53;9.30;39.10
22469;DHT22;11401;50.792;4.352;2023-02-28T11:04:40;9.00;39.20
22469;DHT22;11401;50.792;4.352;2023-02-28T11:07:17;8.80;41.40
22469;DHT22;11401;50.792;4.352;2023-02-28T11:09:55;8.80;41.00
22469;DHT22;11401;50.792;4.352;2023-02-28T11:14:59;8.70;40.50
22469;DHT22;11401;50.792;4.352;2023-02-28T11:17:29;8.80;41.90
22469;DHT22;11401;50.792;4.352;2023-02-28T11:20:04;8.80;40.00
22469;DHT22;11401;50.792;4.352;2023-02-28T11:22:38;8.80;40.20
22469;DHT22;11401;50.792;4.352;2023-02-28T11:25:30;8.70;40.80
22469;DHT22;11401;50.792;4.352;2023-02-28T11:28:02;8.60;40.20
22469;DHT22;11401;50.792;4.352;2023-02-28T11:30:39;8.40;39.30
22469;DHT22;11401;50.792;4.352;2023-02-28T11:33:31;8.40;40.80
22469;DHT22;11401;50.792;4.352;2023-02-28T11:36:07;8.50;39.80
22469;DHT22;11401;50.792;4.352;2023-02-28T11:38:36;8.50;41.40
22469;DHT22;11401;50.792;4.352;2023-02-28T11:47:15;10.00;42.10
22469;DHT22;11401;50.792;4.352;2023-02-28T11:55:23;10.10;40.30
22469;DHT22;11401;50.792;4.352;2023-02-28T11:57:54;10.40;41.80
22469;DHT22;11401;50.792;4.352;2023-02-28T12:27:13;10.70;39.30
22469;DHT22;11401;50.792;4.352;2023-02-28T12:32:36;10.60;39.10
22469;DHT22;11401;50.792;4.352;2023-02-28T12:35:06;10.80;39.20
22469;DHT22;11401;50.792;4.352;2023-02-28T12:37:57;11.00;40.70
22469;DHT22;11401;50.792;4.352;2023-02-28T12:40:33;11.10;39.90
22469;DHT22;11401;50.792;4.352;2023-02-28T12:43:04;11.20;39.40
22469;DHT22;11401;50.792;4.352;2023-02-28T12:45:59;11.10;39.40
22469;DHT22;11401;50.792;4.352;2023-02-28T12:48:33;11.10;38.40
22469;DHT22;11401;50.792;4.352;2023-02-28T12:51:06;11.10;38.20
22469;DHT22;11401;50.792;4.352;2023-02-28T12:56:36;10.80;37.30
22469;DHT22;11401;50.792;4.352;2023-02-28T12:59:27;10.70;39.30
22469;DHT22;11401;50.792;4.352;2023-02-28T13:10:00;11.10;40.30
22469;DHT22;11401;50.792;4.352;2023-02-28T13:12:29;11.20;39.10
22469;DHT22;11401;50.792;4.352;2023-02-28T13:17:48;11.50;38.70
22469;DHT22;11401;50.792;4.352;2023-02-28T13:20:24;11.50;37.30
22469;DHT22;11401;50.792;4.352;2023-02-28T13:22:53;11.30;37.50
22469;DHT22;11401;50.792;4.352;2023-02-28T13:28:01;11.40;39.30
22469;DHT22;11401;50.792;4.352;2023-02-28T13:38:48;11.20;39.30
22469;DHT22;11401;50.792;4.352;2023-02-28T13:44:21;11.20;37.90
22469;DHT22;11401;50.792;4.352;2023-02-28T13:52:02;11.40;36.80
22469;DHT22;11401;50.792;4.352;2023-02-28T14:03:09;11.50;37.50
22469;DHT22;11401;50.792;4.352;2023-02-28T14:05:37;11.40;36.20
22469;DHT22;11401;50.792;4.352;2023-02-28T14:08:18;11.30;37.70
22469;DHT22;11401;50.792;4.352;2023-02-28T14:10:49;11.30;35.90
22469;DHT22;11401;50.792;4.352;2023-02-28T14:13:40;11.40;39.10
22469;DHT22;11401;50.792;4.352;2023-02-28T14:16:20;11.40;37.90
22469;DHT22;11401;50.792;4.352;2023-02-28T14:18:51;11.40;36.20
22469;DHT22;11401;50.792;4.352;2023-02-28T14:21:25;11.30;34.90
22469;DHT22;11401;50.792;4.352;2023-02-28T14:32:01;11.20;36.20
22469;DHT22;11401;50.792;4.352;2023-02-28T14:34:44;11.20;35.80
22469;DHT22;11401;50.792;4.352;2023-02-28T14:37:20;11.10;38.50
22469;DHT22;11401;50.792;4.352;2023-02-28T14:39:50;11.20;37.90
22469;DHT22;11401;50.792;4.352;2023-02-28T14:42:33;11.30;36.70
22469;DHT22;11401;50.792;4.352;2023-02-28T14:45:02;11.20;36.20
22469;DHT22;11401;50.792;4.352;2023-02-28T14:47:32;11.10;39.80
22469;DHT22;11401;50.792;4.352;2023-02-28T14:50:00;11.00;38.70
22469;DHT22;11401;50.792;4.352;2023-02-28T14:52:30;11.10;38.70
22469;DHT22;11401;50.792;4.352;2023-02-28T14:55:12;11.20;37.60
22469;DHT22;11401;50.792;4.352;2023-02-28T14:57:43;11.30;38.70
22469;DHT22;11401;50.792;4.352;2023-02-28T15:00:29;11.30;35.90
22469;DHT22;11401;50.792;4.352;2023-02-28T15:02:58;11.20;36.30
22469;DHT22;11401;50.792;4.352;2023-02-28T15:05:33;11.30;37.20
22469;DHT22;11401;50.792;4.352;2023-02-28T15:08:10;11.40;38.20
22469;DHT22;11401;50.792;4.352;2023-02-28T15:10:40;11.40;36.90
22469;DHT22;11401;50.792;4.352;2023-02-28T15:13:13;11.30;38.90
22469;DHT22;11401;50.792;4.352;2023-02-28T15:15:56;11.40;37.50
22469;DHT22;11401;50.792;4.352;2023-02-28T15:21:20;11.40;37.70
22469;DHT22;11401;50.792;4.352;2023-02-28T15:26:26;11.50;39.40
22469;DHT22;11401;50.792;4.352;2023-02-28T15:29:08;11.50;37.80
22469;DHT22;11401;50.792;4.352;2023-02-28T15:31:45;11.50;37.60
22469;DHT22;11401;50.792;4.352;2023-02-28T15:34:41;11.70;38.80
22469;DHT22;11401;50.792;4.352;2023-02-28T15:40:05;11.80;37.40
22469;DHT22;11401;50.792;4.352;2023-02-28T15:42:32;11.70;38.20
22469;DHT22;11401;50.792;4.352;2023-02-28T15:44:59;11.60;38.20
22469;DHT22;11401;50.792;4.352;2023-02-28T15:47:28;11.50;36.50
22469;DHT22;11401;50.792;4.352;2023-02-28T15:50:08;11.40;37.20
22469;DHT22;11401;50.792;4.352;2023-02-28T15:52:44;11.40;38.50
22469;DHT22;11401;50.792;4.352;2023-02-28T15:55:26;11.40;38.80
22469;DHT22;11401;50.792;4.352;2023-02-28T15:57:57;11.60;39.30
22469;DHT22;11401;50.792;4.352;2023-02-28T16:00:28;11.70;38.60
22469;DHT22;11401;50.792;4.352;2023-02-28T16:02:56;11.80;39.70
22469;DHT22;11401;50.792;4.352;2023-02-28T16:07:56;11.80;39.60
22469;DHT22;11401;50.792;4.352;2023-02-28T16:10:25;11.90;38.50
22469;DHT22;11401;50.792;4.352;2023-02-28T16:12:55;11.80;38.30
22469;DHT22;11401;50.792;4.352;2023-02-28T16:15:28;11.80;38.90
22469;DHT22;11401;50.792;4.352;2023-02-28T16:17:57;11.80;40.00
22469;DHT22;11401;50.792;4.352;2023-02-28T16:20:29;11.90;38.30
22469;DHT22;11401;50.792;4.352;2023-02-28T16:22:57;11.70;37.40
22469;DHT22;11401;50.792;4.352;2023-02-28T16:25:39;11.60;38.20
22469;DHT22;11401;50.792;4.352;2023-02-28T16:28:19;11.60;39.20
22469;DHT22;11401;50.792;4.352;2023-02-28T16:30:47;11.40;39.10
22469;DHT22;11401;50.792;4.352;2023-02-28T16:33:14;11.40;38.70
22469;DHT22;11401;50.792;4.352;2023-02-28T16:35:41;11.30;36.80
22469;DHT22;11401;50.792;4.352;2023-02-28T16:38:08;11.30;40.60
22469;DHT22;11401;50.792;4.352;2023-02-28T16:40:36;11.20;38.30
22469;DHT22;11401;50.792;4.352;2023-02-28T16:43:24;11.30;41.10
22469;DHT22;11401;50.792;4.352;2023-02-28T16:45:55;11.40;40.90
22469;DHT22;11401;50.792;4.352;2023-02-28T16:48:27;11.50;40.30
22469;DHT22;11401;50.792;4.352;2023-02-28T16:50:54;11.60;41.20
22469;DHT22;11401;50.792;4.352;2023-02-28T16:53:21;11.60;40.60
22469;DHT22;11401;50.792;4.352;2023-02-28T16:55:48;11.60;39.70
22469;DHT22;11401;50.792;4.352;2023-02-28T16:58:18;11.70;40.30
22469;DHT22;11401;50.792;4.352;2023-02-28T17:00:48;11.50;39.40
22469;DHT22;11401;50.792;4.352;2023-02-28T17:03:33;11.60;40.20
22469;DHT22;11401;50.792;4.352;2023-02-28T17:06:03;11.60;41.00
22469;DHT22;11401;50.792;4.352;2023-02-28T17:08:31;11.70;40.30
22469;DHT22;11401;50.792;4.352;2023-02-28T17:10:59;11.70;41.20
22469;DHT22;11401;50.792;4.352;2023-02-28T17:13:28;11.80;40.80
22469;DHT22;11401;50.792;4.352;2023-02-28T17:15:55;11.80;41.90
22469;DHT22;11401;50.792;4.352;2023-02-28T17:18:22;11.90;40.80
22469;DHT22;11401;50.792;4.352;2023-02-28T17:20:49;11.90;41.30
22469;DHT22;11401;50.792;4.352;2023-02-28T17:23:16;12.00;42.20
22469;DHT22;11401;50.792;4.352;2023-02-28T17:25:44;12.00;40.60
22469;DHT22;11401;50.792;4.352;2023-02-28T17:28:24;12.00;39.30
22469;DHT22;11401;50.792;4.352;2023-02-28T17:30:51;11.90;40.30
22469;DHT22;11401;50.792;4.352;2023-02-28T17:33:18;11.90;40.80
22469;DHT22;11401;50.792;4.352;2023-02-28T17:35:45;11.80;40.70
22469;DHT22;11401;50.792;4.352;2023-02-28T17:38:16;11.90;40.80
22469;DHT22;11401;50.792;4.352;2023-02-28T17:40:44;11.80;39.40
22469;DHT22;11401;50.792;4.352;2023-02-28T17:43:14;11.70;40.20
22469;DHT22;11401;50.792;4.352;2023-02-28T17:45:41;11.80;40.90
22469;DHT22;11401;50.792;4.352;2023-02-28T17:48:11;11.70;39.60
22469;DHT22;11401;50.792;4.352;2023-02-28T17:50:39;11.70;40.60
22469;DHT22;11401;50.792;4.352;2023-02-28T17:53:06;11.70;41.10
22469;DHT22;11401;50.792;4.352;2023-02-28T17:55:34;11.70;41.90
22469;DHT22;11401;50.792;4.352;2023-02-28T17:58:02;11.70;40.90
22469;DHT22;11401;50.792;4.352;2023-02-28T18:00:30;11.70;42.00
22469;DHT22;11401;50.792;4.352;2023-02-28T18:03:00;11.70;41.80
22469;DHT22;11401;50.792;4.352;2023-02-28T18:05:27;11.80;42.00
22469;DHT22;11401;50.792;4.352;2023-02-28T18:07:54;11.80;41.70
22469;DHT22;11401;50.792;4.352;2023-02-28T18:10:21;11.80;40.00
22469;DHT22;11401;50.792;4.352;2023-02-28T18:12:50;11.40;40.10
22469;DHT22;11401;50.792;4.352;2023-02-28T18:15:20;11.40;42.90
22469;DHT22;11401;50.792;4.352;2023-02-28T18:17:48;11.40;42.70
22469;DHT22;11401;50.792;4.352;2023-02-28T18:20:16;11.50;42.50
22469;DHT22;11401;50.792;4.352;2023-02-28T18:22:43;11.50;42.60
22469;DHT22;11401;50.792;4.352;2023-02-28T18:25:11;11.50;42.30
22469;DHT22;11401;50.792;4.352;2023-02-28T18:27:44;11.60;42.80
22469;DHT22;11401;50.792;4.352;2023-02-28T18:30:29;11.60;42.90
22469;DHT22;11401;50.792;4.352;2023-02-28T18:32:58;11.70;42.60
22469;DHT22;11401;50.792;4.352;2023-02-28T18:35:26;11.60;42.80
22469;DHT22;11401;50.792;4.352;2023-02-28T18:38:12;11.60;42.50
22469;DHT22;11401;50.792;4.352;2023-02-28T18:40:42;11.70;43.80